« Back
NWS Peachtree City, Ga » Text Product » CSG Terminal Aerodrome Forecast


Printer-friendly Version
Current Version              Previous Versions:   1  2  3  4  5  6  7  8  9  

Terminal Aerodrome Forecast

675
FTUS42 KFFC 201100
TAFCSG
TAF
KCSG 201125Z 2012/2112 27003KT 6SM BR FEW010
     FM201500 28006KT P6SM SCT025
     FM201800 29008KT P6SM VCSH SCT045
      TEMPO 2020/2024 VRB15G25KT 5SM -TSRA BKN030CB
     FM210200 28003KT P6SM FEW050=



USA.gov is the U.S. government's official web portal to all federal, state and local government web resources and services.